Time;durP1;ratioP1;P1;durP2;ratioP2;P2;SDS_P1;SDS_P2;PMS_P1;PMS_P2;Temp;Humidity;BMP_temperature;BMP_pressure;BME280_temperature;BME280_humidity;BME280_pressure;Samples;Min_cycle;Max_cycle;Signal;HPM_P1;HPM_P2
2023/08/17 00:00:13;;;;;;;10.20;6.90;;;;;;;19.72;74.08;99429.34;6205035;23;20352;-89
2023/08/17 00:02:40;;;;;;;11.20;7.15;;;;;;;19.75;74.81;99432.22;6203821;23;20003;-86
2023/08/17 00:05:06;;;;;;;12.52;7.60;;;;;;;19.70;74.74;99417.94;6205702;23;20005;-88
2023/08/17 00:07:32;;;;;;;12.45;6.47;;;;;;;19.73;75.13;99422.75;6231175;23;20010;-86
2023/08/17 00:09:58;;;;;;;11.25;6.97;;;;;;;19.70;75.17;99415.19;6205496;23;20006;-88
2023/08/17 00:12:23;;;;;;;13.55;6.78;;;;;;;19.62;75.74;99399.63;6206076;23;20005;-88
2023/08/17 00:14:59;;;;;;;8.90;6.38;;;;;;;19.73;75.49;99417.28;6232345;22;20411;-90
2023/08/17 00:17:24;;;;;;;7.53;5.55;;;;;;;19.67;74.99;99404.91;6223347;23;20005;-87
2023/08/17 00:19:50;;;;;;;14.90;6.82;;;;;;;19.71;75.36;99414.88;6205576;23;20482;-86
2023/08/17 00:22:15;;;;;;;14.90;6.18;;;;;;;19.79;75.81;99421.44;6205867;23;20016;-87
2023/08/17 00:24:44;;;;;;;8.00;5.85;;;;;;;19.76;75.11;99424.84;6206478;23;20009;-86
2023/08/17 00:27:09;;;;;;;9.65;6.32;;;;;;;19.80;75.32;99420.31;6234200;22;20021;-87
2023/08/17 00:29:35;;;;;;;11.65;6.25;;;;;;;19.75;75.54;99410.34;6236455;22;20088;-86
2023/08/17 00:32:01;;;;;;;12.38;6.03;;;;;;;19.76;75.38;99411.19;6236693;22;19997;-86
2023/08/17 00:34:27;;;;;;;8.80;5.93;;;;;;;19.74;75.63;99416.16;6236610;22;20005;-88
2023/08/17 00:36:52;;;;;;;8.20;5.82;;;;;;;19.75;75.70;99417.75;6261395;22;19993;-86
2023/08/17 00:39:19;;;;;;;12.02;6.22;;;;;;;19.69;75.76;99413.56;6236487;23;20001;-86
2023/08/17 00:41:45;;;;;;;8.73;5.97;;;;;;;19.69;75.42;99422.56;6236594;22;20004;-87
2023/08/17 00:44:11;;;;;;;12.55;6.18;;;;;;;19.67;75.72;99424.03;6261993;22;20004;-85
2023/08/17 00:46:36;;;;;;;8.63;5.68;;;;;;;19.71;75.77;99417.59;6235999;23;20012;-89
2023/08/17 00:49:02;;;;;;;8.73;6.15;;;;;;;19.86;75.77;99418.19;6236275;23;20001;-85
2023/08/17 00:51:27;;;;;;;11.43;6.07;;;;;;;19.91;75.76;99416.06;6237671;22;20005;-86
2023/08/17 00:53:54;;;;;;;10.32;6.28;;;;;;;19.95;75.62;99421.69;6236276;22;20424;-86
2023/08/17 00:56:21;;;;;;;7.35;6.07;;;;;;;20.06;75.66;99433.03;6236125;22;19997;-85
2023/08/17 00:58:46;;;;;;;7.75;5.55;;;;;;;19.89;75.53;99425.75;6235899;22;20068;-87
2023/08/17 01:01:12;;;;;;;12.93;6.18;;;;;;;19.82;75.83;99428.16;6235460;23;20001;-86
2023/08/17 01:03:41;;;;;;;9.63;5.90;;;;;;;19.79;76.11;99437.84;6260940;22;20012;-89
2023/08/17 01:06:07;;;;;;;11.25;5.82;;;;;;;19.62;76.45;99425.03;6261185;22;20001;-86
2023/08/17 01:08:32;;;;;;;12.98;6.90;;;;;;;19.54;76.09;99429.38;6236391;23;20004;-87
2023/08/17 01:11:34;;;;;;;7.63;5.53;;;;;;;19.56;76.27;99439.97;6236708;23;20009;-87
2023/08/17 01:14:00;;;;;;;;;;;;;;;19.52;76.42;99439.81;6262736;22;20009;-87
2023/08/17 01:16:47;;;;;;;11.50;5.65;;;;;;;19.45;76.48;99431.34;6182503;23;19904;-86
2023/08/17 01:19:24;;;;;;;6.72;5.30;;;;;;;19.42;76.78;99423.78;6239188;22;20005;-88
2023/08/17 01:21:50;;;;;;;6.10;5.32;;;;;;;19.30;77.03;99410.84;6237366;22;20424;-87
2023/08/17 01:24:18;;;;;;;10.63;5.95;;;;;;;19.28;77.02;99404.06;6236345;22;20012;-88
2023/08/17 01:26:44;;;;;;;9.88;5.70;;;;;;;19.26;76.97;99420.81;6234681;23;20018;-87
2023/08/17 01:29:09;;;;;;;9.15;6.38;;;;;;;19.19;77.06;99412.28;6235166;23;20325;-87
2023/08/17 01:31:40;;;;;;;9.07;5.72;;;;;;;19.26;76.55;99428.16;6235778;23;20442;-87
2023/08/17 01:34:08;;;;;;;7.83;5.40;;;;;;;19.15;76.72;99430.44;6236314;22;20021;-87
2023/08/17 01:36:42;;;;;;;8.60;5.60;;;;;;;19.06;76.30;99429.69;6236075;22;20054;-87
2023/08/17 01:39:08;;;;;;;8.85;5.78;;;;;;;18.94;77.26;99427.59;6238175;22;20001;-87
2023/08/17 01:41:33;;;;;;;9.43;5.18;;;;;;;18.88;77.19;99428.88;6260847;22;20005;-87
2023/08/17 01:43:59;;;;;;;11.35;5.55;;;;;;;18.93;77.53;99445.09;6235623;23;20009;-87
2023/08/17 01:46:32;;;;;;;8.90;5.82;;;;;;;18.85;77.19;99427.59;6235710;22;20154;-87
2023/08/17 01:48:57;;;;;;;7.25;5.43;;;;;;;18.79;77.91;99426.16;6237373;22;20047;-86
2023/08/17 01:51:24;;;;;;;12.38;5.97;;;;;;;18.85;77.82;99440.47;6262604;22;20414;-87
2023/08/17 01:53:51;;;;;;;9.23;5.53;;;;;;;18.84;78.05;99441.56;6235550;22;20424;-86
2023/08/17 01:56:17;;;;;;;10.70;5.43;;;;;;;18.82;77.95;99447.34;6235837;22;19999;-87
2023/08/17 01:58:43;;;;;;;8.05;5.55;;;;;;;18.78;78.17;99436.28;6235077;22;20416;-88
2023/08/17 02:01:08;;;;;;;7.90;5.82;;;;;;;18.87;78.18;99443.66;6261603;22;20004;-86
2023/08/17 02:03:34;;;;;;;8.10;5.97;;;;;;;18.86;77.95;99440.13;6235680;22;20099;-85
2023/08/17 02:05:59;;;;;;;10.10;5.70;;;;;;;18.70;78.59;99417.16;6235438;23;20013;-87
2023/08/17 02:08:25;;;;;;;10.90;6.15;;;;;;;18.68;78.38;99412.03;6236041;23;20001;-86
2023/08/17 02:10:51;;;;;;;11.15;6.53;;;;;;;18.76;78.75;99432.25;6237700;22;20084;-89
2023/08/17 02:13:16;;;;;;;7.70;6.15;;;;;;;18.70;78.26;99403.53;6237071;22;20005;-87
2023/08/17 02:15:42;;;;;;;8.00;5.63;;;;;;;18.61;78.47;99389.09;6261794;22;19997;-88
2023/08/17 02:18:08;;;;;;;12.05;6.70;;;;;;;18.65;78.49;99406.41;6233827;22;20336;-87
2023/08/17 02:20:36;;;;;;;8.73;6.05;;;;;;;18.66;78.31;99403.38;6263181;22;20009;-87
2023/08/17 02:23:01;;;;;;;9.48;6.70;;;;;;;18.70;78.48;99422.63;6239228;22;20007;-87
2023/08/17 02:25:33;;;;;;;8.57;6.68;;;;;;;18.57;78.51;99408.81;6236800;23;20108;-86
2023/08/17 02:28:03;;;;;;;10.90;7.93;;;;;;;18.49;78.87;99397.91;6264264;22;20009;-86
2023/08/17 02:30:28;;;;;;;9.00;7.05;;;;;;;18.55;78.92;99412.97;6243631;22;20009;-93
2023/08/17 02:32:54;;;;;;;12.98;7.15;;;;;;;18.44;78.92;99395.34;6266911;22;20457;-94
2023/08/17 02:35:20;;;;;;;8.48;6.65;;;;;;;18.56;79.25;99420.84;6241344;22;19981;-94
2023/08/17 02:37:45;;;;;;;12.05;6.63;;;;;;;18.57;79.04;99418.91;6242796;23;20039;-96
2023/08/17 02:40:14;;;;;;;10.73;7.10;;;;;;;18.62;78.83;99416.03;6268017;22;20005;-94
2023/08/17 02:42:39;;;;;;;10.18;6.72;;;;;;;18.84;77.83;99425.19;6266145;22;20001;-95
2023/08/17 02:45:06;;;;;;;11.20;6.30;;;;;;;18.84;78.12;99422.47;6240982;23;20070;-94
2023/08/17 02:47:32;;;;;;;8.70;6.85;;;;;;;18.83;78.58;99432.59;6240692;22;20066;-93
2023/08/17 02:49:58;;;;;;;10.70;6.72;;;;;;;18.82;78.30;99422.78;6267805;22;20134;-94
2023/08/17 02:52:23;;;;;;;10.52;7.10;;;;;;;18.77;78.59;99429.19;6267364;22;20001;-94
2023/08/17 02:54:49;;;;;;;15.43;7.20;;;;;;;18.67;78.74;99418.59;6241662;23;20005;-93
2023/08/17 02:57:15;;;;;;;8.68;7.13;;;;;;;18.54;78.55;99420.38;6267606;22;19981;-94
2023/08/17 02:59:40;;;;;;;11.52;7.55;;;;;;;18.40;78.85;99416.97;6241503;23;20009;-95
2023/08/17 03:02:06;;;;;;;15.70;7.80;;;;;;;18.45;78.96;99430.47;6241909;23;20451;-94
2023/08/17 03:04:32;;;;;;;14.60;7.68;;;;;;;18.21;79.00;99409.09;6267044;22;20039;-94
2023/08/17 03:06:58;;;;;;;12.23;7.78;;;;;;;18.34;78.64;99448.25;6265769;22;20440;-95
2023/08/17 03:09:23;;;;;;;11.55;7.28;;;;;;;18.24;78.52;99441.19;6268387;22;20017;-94
2023/08/17 03:11:49;;;;;;;10.80;6.95;;;;;;;18.13;79.71;99446.09;6241275;23;20001;-94
2023/08/17 03:14:14;;;;;;;11.95;8.43;;;;;;;18.07;79.52;99444.66;6241848;23;20451;-93
2023/08/17 03:16:40;;;;;;;10.75;7.28;;;;;;;18.01;79.89;99445.13;6242077;23;20005;-95
2023/08/17 03:19:07;;;;;;;11.05;7.25;;;;;;;18.05;79.75;99448.81;6241199;23;19981;-94
2023/08/17 03:21:33;;;;;;;11.55;7.25;;;;;;;18.06;80.11;99458.63;6241289;22;20001;-94
2023/08/17 03:23:59;;;;;;;8.05;6.20;;;;;;;17.97;80.47;99443.03;6242688;22;20009;-95
2023/08/17 03:26:24;;;;;;;11.90;7.28;;;;;;;17.97;80.71;99453.94;6238920;23;20021;-93
2023/08/17 03:28:50;;;;;;;10.98;7.20;;;;;;;17.98;80.82;99449.28;6242278;23;20012;-95
2023/08/17 03:31:15;;;;;;;10.75;7.60;;;;;;;18.01;80.88;99447.84;6242247;23;20012;-92
2023/08/17 03:33:41;;;;;;;10.57;7.05;;;;;;;17.97;80.74;99444.94;6239934;23;20008;-93
2023/08/17 03:36:06;;;;;;;12.95;7.43;;;;;;;18.01;80.87;99439.66;6240627;23;19997;-92
2023/08/17 03:38:32;;;;;;;11.95;7.90;;;;;;;18.04;80.97;99456.19;6239340;22;20454;-92
2023/08/17 03:40:58;;;;;;;12.27;8.48;;;;;;;17.97;81.08;99445.78;6240491;23;19997;-91
2023/08/17 03:43:23;;;;;;;12.30;8.02;;;;;;;17.92;81.32;99442.38;6240591;22;20009;-92
2023/08/17 03:46:01;;;;;;;14.60;8.32;;;;;;;18.03;81.34;99456.50;6239113;23;20008;-92
2023/08/17 03:48:27;;;;;;;11.68;8.55;;;;;;;17.95;81.48;99437.09;6242056;22;20001;-91
2023/08/17 03:51:01;;;;;;;17.40;9.10;;;;;;;18.09;81.06;99447.06;6240093;23;20004;-92
2023/08/17 03:53:27;;;;;;;15.23;9.00;;;;;;;18.05;81.13;99446.88;6240305;22;20004;-94
2023/08/17 03:55:59;;;;;;;18.15;9.25;;;;;;;18.18;80.92;99461.53;6266980;22;20001;-92
2023/08/17 03:58:26;;;;;;;36.78;10.68;;;;;;;18.11;81.05;99448.34;6266968;22;20088;-92
2023/08/17 04:01:00;;;;;;;17.30;10.25;;;;;;;17.91;81.66;99438.06;6240512;22;20511;-91
2023/08/17 04:03:25;;;;;;;15.88;9.63;;;;;;;18.03;81.49;99453.78;6238831;22;20020;-91
2023/08/17 04:05:51;;;;;;;15.35;9.82;;;;;;;17.93;81.68;99455.69;6241617;22;20324;-93
2023/08/17 04:08:17;;;;;;;17.80;10.18;;;;;;;17.86;82.09;99449.88;6239218;23;20347;-92
2023/08/17 04:10:42;;;;;;;13.38;9.93;;;;;;;17.93;82.22;99449.44;6239359;22;20044;-93
2023/08/17 04:13:23;;;;;;;18.48;10.52;;;;;;;17.96;81.92;99456.97;6239387;23;20009;-90
2023/08/17 04:15:49;;;;;;;20.83;11.45;;;;;;;17.99;82.00;99464.50;6256739;22;19989;-91
2023/08/17 04:18:15;;;;;;;15.93;9.57;;;;;;;17.94;81.73;99456.47;6239188;22;20070;-90
2023/08/17 04:20:40;;;;;;;22.60;11.77;;;;;;;17.92;82.00;99440.44;6238204;23;20458;-91
2023/08/17 04:23:06;;;;;;;20.30;11.80;;;;;;;18.09;81.61;99455.25;6238417;23;20005;-90
2023/08/17 04:25:31;;;;;;;21.35;11.98;;;;;;;18.04;81.98;99450.75;6228352;23;20033;-92
2023/08/17 04:27:57;;;;;;;16.80;12.48;;;;;;;18.04;82.20;99450.75;6209066;23;20005;-89
2023/08/17 04:30:26;;;;;;;18.80;11.43;;;;;;;18.07;82.36;99446.59;6233496;23;19997;-92
2023/08/17 04:32:52;;;;;;;21.30;11.50;;;;;;;18.15;81.86;99462.16;6207836;23;20364;-91
2023/08/17 04:35:28;;;;;;;19.85;10.70;;;;;;;18.24;81.37;99462.16;6209021;23;20521;-93
2023/08/17 04:37:54;;;;;;;17.67;10.75;;;;;;;18.34;81.11;99457.25;6210060;23;20406;-93
2023/08/17 04:43:14;;;;;;;14.18;9.95;;;;;;;18.61;80.13;99484.53;6220025;23;20467;-88
2023/08/17 04:45:40;;;;;;;37.95;29.50;;;;;;;18.55;79.79;99442.97;6230655;23;19997;-88
2023/08/17 04:48:06;;;;;;;16.75;10.35;;;;;;;18.80;78.86;99476.06;6206542;23;20059;-90
2023/08/17 04:50:39;;;;;;;14.40;8.48;;;;;;;18.76;78.95;99471.22;6206426;23;20019;-90
2023/08/17 04:53:05;;;;;;;13.90;8.95;;;;;;;18.89;79.59;99485.88;6206715;23;20010;-86
2023/08/17 04:55:33;;;;;;;9.88;8.25;;;;;;;18.82;78.67;99449.28;6230304;23;20008;-90
2023/08/17 04:57:59;;;;;;;11.55;8.85;;;;;;;19.06;78.54;99471.41;6206629;23;20008;-88
2023/08/17 05:00:28;;;;;;;11.90;8.82;;;;;;;19.15;78.16;99483.13;6206363;23;20009;-87
2023/08/17 05:02:54;;;;;;;13.95;8.75;;;;;;;19.18;77.77;99463.38;6229826;23;20002;-87
2023/08/17 05:05:20;;;;;;;13.20;9.32;;;;;;;19.32;77.53;99478.75;6231298;23;20440;-88
2023/08/17 05:07:46;;;;;;;13.00;8.13;;;;;;;19.36;77.17;99460.59;6205986;23;19998;-87
2023/08/17 05:10:14;;;;;;;12.50;8.88;;;;;;;19.46;77.16;99473.09;6205434;23;20010;-87
2023/08/17 05:12:42;;;;;;;14.05;7.93;;;;;;;19.58;77.30;99479.50;6232691;23;19998;-94
2023/08/17 05:15:21;;;;;;;;;;;;;;;;;;;;;
2023/08/17 05:17:47;;;;;;;12.82;7.05;;;;;;;19.64;75.83;99454.75;6222397;23;20029;-87
2023/08/17 05:20:21;;;;;;;16.35;8.40;;;;;;;19.86;76.54;99479.13;6207052;23;20020;-88
2023/08/17 05:22:55;;;;;;;10.75;7.50;;;;;;;19.79;75.62;99457.75;6201866;23;20012;-87
2023/08/17 05:25:30;;;;;;;13.65;7.57;;;;;;;19.88;74.91;99451.44;6206590;23;20060;-93
2023/08/17 05:27:58;;;;;;;16.15;7.93;;;;;;;19.92;75.26;99442.28;6087479;23;20089;-94
2023/08/17 05:30:35;;;;;;;11.73;7.70;;;;;;;20.02;74.81;99448.50;6091193;23;20101;-92
2023/08/17 05:33:01;;;;;;;14.20;8.50;;;;;;;20.17;74.96;99443.28;6085657;23;20022;-89
2023/08/17 05:35:35;;;;;;;16.73;10.13;;;;;;;20.42;73.38;99448.91;6079384;23;20343;-90
2023/08/17 05:38:04;;;;;;;18.45;10.02;;;;;;;20.48;73.35;99461.25;6080014;23;20073;-88
2023/08/17 05:40:36;;;;;;;16.67;11.23;;;;;;;20.47;72.87;99442.44;6081485;23;20064;-88
2023/08/17 05:43:04;;;;;;;17.00;11.10;;;;;;;20.53;72.94;99428.22;6080752;23;20088;-87
2023/08/17 05:45:30;;;;;;;20.13;11.05;;;;;;;20.73;72.17;99450.47;6083089;23;20001;-88
2023/08/17 05:47:55;;;;;;;18.02;9.65;;;;;;;20.85;72.46;99450.53;6103996;23;20017;-88
2023/08/17 05:50:21;;;;;;;14.48;9.02;;;;;;;21.00;71.91;99457.34;6079146;23;20016;-87
2023/08/17 05:52:46;;;;;;;15.95;8.75;;;;;;;21.00;71.26;99446.38;6079931;23;20023;-85
2023/08/17 05:55:12;;;;;;;15.70;9.38;;;;;;;21.07;71.27;99443.09;6082185;23;20006;-88
2023/08/17 05:57:50;;;;;;;22.15;16.42;;;;;;;21.15;70.29;99428.53;6104410;23;20005;-88
2023/08/17 06:00:19;;;;;;;15.80;9.15;;;;;;;21.36;70.33;99455.84;6084900;23;20012;-86
2023/08/17 06:02:51;;;;;;;14.68;8.63;;;;;;;21.30;69.73;99443.50;6082235;23;20054;-90
2023/08/17 06:05:26;;;;;;;12.32;8.20;;;;;;;21.51;69.47;99441.50;6089451;23;20096;-90
2023/08/17 06:07:52;;;;;;;15.70;8.40;;;;;;;21.50;68.84;99434.44;6085117;23;20440;-89
2023/08/17 06:10:17;;;;;;;11.13;7.85;;;;;;;21.62;69.04;99441.06;6107429;23;20009;-88
2023/08/17 06:12:46;;;;;;;12.88;8.00;;;;;;;21.73;67.74;99440.28;6082355;23;20005;-88
2023/08/17 06:15:11;;;;;;;12.32;8.45;;;;;;;21.84;68.91;99453.56;6085392;23;20002;-88
2023/08/17 06:17:39;;;;;;;13.27;7.55;;;;;;;21.90;68.09;99450.22;6107797;23;20002;-89
2023/08/17 06:20:05;;;;;;;15.35;8.32;;;;;;;22.06;67.38;99444.88;6107532;23;20009;-90
2023/08/17 06:22:30;;;;;;;13.75;8.50;;;;;;;22.11;66.77;99452.06;6081562;23;20063;-87
2023/08/17 06:25:05;;;;;;;19.40;8.50;;;;;;;22.38;66.30;99462.34;6081168;23;20005;-89
2023/08/17 06:27:31;;;;;;;18.23;8.10;;;;;;;22.49;65.73;99435.22;6129921;22;20352;-87
2023/08/17 06:29:57;;;;;;;17.17;9.27;;;;;;;22.79;64.76;99460.41;6103951;23;20001;-90
2023/08/17 06:32:29;;;;;;;14.93;8.70;;;;;;;22.98;64.75;99464.47;6107295;23;20017;-87
2023/08/17 06:34:55;;;;;;;22.10;9.27;;;;;;;22.99;64.32;99455.91;6105415;23;20005;-85
2023/08/17 06:37:23;;;;;;;24.40;8.80;;;;;;;23.13;64.40;99461.00;6105538;23;20001;-92
2023/08/17 06:39:49;;;;;;;17.17;10.60;;;;;;;23.14;63.88;99435.13;6102123;23;20341;-88
2023/08/17 06:42:16;;;;;;;15.45;9.15;;;;;;;23.19;63.32;99440.38;6103842;23;20006;-88
2023/08/17 06:44:41;;;;;;;15.00;9.32;;;;;;;23.37;62.50;99440.06;6105881;23;20041;-89
2023/08/17 06:47:07;;;;;;;22.60;15.68;;;;;;;23.58;62.85;99454.34;6107978;23;20410;-89
2023/08/17 06:49:33;;;;;;;16.13;10.50;;;;;;;23.84;61.83;99458.53;6108584;23;20005;-89
2023/08/17 06:51:58;;;;;;;17.23;10.55;;;;;;;24.00;61.31;99458.53;6130044;22;20092;-89
2023/08/17 06:54:24;;;;;;;17.20;10.90;;;;;;;24.13;59.94;99448.22;6113286;22;20009;-96
2023/08/17 06:56:54;;;;;;;19.23;11.45;;;;;;;24.26;59.15;99446.97;6111580;23;20005;-94
2023/08/17 06:59:26;;;;;;;20.67;9.25;;;;;;;24.15;58.94;99432.13;6112013;23;19990;-94
2023/08/17 07:01:53;;;;;;;15.68;9.05;;;;;;;24.23;59.56;99425.66;6133727;23;20394;-94
2023/08/17 07:04:19;;;;;;;15.35;8.63;;;;;;;24.61;59.15;99448.91;6112803;23;19993;-93
2023/08/17 07:06:47;;;;;;;15.32;7.85;;;;;;;24.75;57.77;99437.41;6144126;22;20043;-96
2023/08/17 07:09:16;;;;;;;20.02;12.35;;;;;;;24.93;58.05;99449.56;6115804;23;20008;-96
2023/08/17 07:11:41;;;;;;;18.50;7.80;;;;;;;25.00;56.55;99433.16;6135559;22;20053;-96
2023/08/17 07:14:08;;;;;;;13.70;6.65;;;;;;;25.29;56.39;99460.50;6116972;23;20014;-93
2023/08/17 07:16:39;;;;;;;15.63;7.55;;;;;;;25.27;55.83;99430.56;6109675;23;20006;-93
2023/08/17 07:19:04;;;;;;;13.77;7.72;;;;;;;25.12;55.73;99431.44;6109181;23;20087;-94
2023/08/17 07:21:30;;;;;;;12.70;7.45;;;;;;;25.18;56.57;99433.50;6135466;22;20002;-92
2023/08/17 07:23:56;;;;;;;44.72;32.17;;;;;;;25.29;55.85;99427.44;6113630;23;20002;-92
2023/08/17 07:26:22;;;;;;;11.07;6.70;;;;;;;25.52;54.79;99428.22;6110771;23;20021;-88
2023/08/17 07:28:51;;;;;;;10.18;5.35;;;;;;;25.63;54.21;99442.22;6210006;23;20001;-88
2023/08/17 07:31:16;;;;;;;9.00;5.03;;;;;;;25.68;54.68;99427.31;6107217;23;20017;-88
2023/08/17 07:33:42;;;;;;;7.35;5.45;;;;;;;25.75;54.23;99430.19;6211664;23;20055;-88
2023/08/17 07:36:07;;;;;;;7.65;5.30;;;;;;;26.02;53.81;99447.59;6208316;23;20020;-88
2023/08/17 07:38:33;;;;;;;14.25;5.60;;;;;;;26.10;53.79;99441.00;6210926;23;20010;-91
2023/08/17 07:40:59;;;;;;;12.18;5.95;;;;;;;26.20;53.86;99439.59;6210522;23;19997;-91
2023/08/17 07:43:47;;;;;;;7.65;5.40;;;;;;;26.06;52.84;99422.81;6209551;23;20085;-88
2023/08/17 07:46:13;;;;;;;6.20;4.10;;;;;;;26.29;51.72;99437.34;6201229;23;20010;-87
2023/08/17 07:48:41;;;;;;;7.90;4.53;;;;;;;26.32;51.91;99435.81;6207486;23;20036;-88
2023/08/17 07:51:07;;;;;;;7.50;4.65;;;;;;;26.45;51.75;99431.66;6209568;23;20005;-87
2023/08/17 07:54:07;;;;;;;20.20;5.57;;;;;;;26.64;51.96;99441.78;6234772;23;20471;-87
2023/08/17 07:56:33;;;;;;;9.60;4.70;;;;;;;26.76;50.45;99421.41;6128528;23;20357;-87
2023/08/17 07:59:04;;;;;;;8.55;4.70;;;;;;;26.88;50.55;99421.16;6232187;23;19998;-90
2023/08/17 08:01:29;;;;;;;10.77;4.65;;;;;;;27.05;50.41;99425.28;6205023;23;20063;-88
2023/08/17 08:03:55;;;;;;;9.25;4.65;;;;;;;27.07;50.06;99414.66;6211017;23;20194;-90
2023/08/17 08:06:26;;;;;;;10.80;5.50;;;;;;;27.12;49.20;99403.28;6236502;23;20005;-90
2023/08/17 08:08:55;;;;;;;13.02;7.25;;;;;;;27.30;49.33;99410.97;6212406;23;20349;-89
2023/08/17 08:11:23;;;;;;;8.90;6.80;;;;;;;27.49;48.87;99418.25;6212987;23;20098;-89
2023/08/17 08:13:52;;;;;;;38.42;28.92;;;;;;;27.55;48.54;99411.19;6208931;23;20016;-92
2023/08/17 08:16:19;;;;;;;13.27;4.80;;;;;;;27.59;48.72;99415.56;6234601;23;19990;-90
2023/08/17 08:19:13;;;;;;;8.20;3.97;;;;;;;27.60;48.56;99431.00;6261390;22;19997;-91
2023/08/17 08:21:40;;;;;;;5.45;3.85;;;;;;;27.51;48.76;99411.16;6111033;23;20009;-92
2023/08/17 08:24:06;;;;;;;9.90;4.28;;;;;;;27.40;48.93;99399.22;6213690;23;20006;-89
2023/08/17 08:26:35;;;;;;;7.10;3.90;;;;;;;27.44;48.93;99422.16;6252251;22;20069;-88
2023/08/17 08:29:00;;;;;;;4.63;3.80;;;;;;;27.66;48.19;99433.41;6242292;22;20012;-87
2023/08/17 08:31:41;;;;;;;9.80;4.15;;;;;;;27.56;48.01;99398.97;6265500;22;20005;-88
2023/08/17 08:34:22;;;;;;;6.95;3.85;;;;;;;27.50;47.96;99403.25;6267848;22;20062;-89
2023/08/17 08:36:51;;;;;;;7.05;4.00;;;;;;;27.52;48.18;99407.22;6239533;22;20030;-92
2023/08/17 08:39:25;;;;;;;7.03;3.97;;;;;;;27.58;48.35;99399.34;6241197;22;20011;-89
2023/08/17 08:41:54;;;;;;;6.28;4.30;;;;;;;27.72;48.14;99412.50;6212922;22;20022;-92
2023/08/17 08:44:20;;;;;;;4.47;3.47;;;;;;;27.70;47.85;99412.09;6209558;22;20090;-91
2023/08/17 08:46:45;;;;;;;7.88;4.13;;;;;;;27.66;47.19;99389.13;6206154;22;20016;-91
2023/08/17 08:49:11;;;;;;;6.03;3.50;;;;;;;27.92;46.71;99416.63;6207161;22;20008;-88
2023/08/17 08:52:00;;;;;;;8.10;3.80;;;;;;;27.99;46.01;99402.06;6213809;22;20003;-91
2023/08/17 08:54:26;;;;;;;8.93;4.20;;;;;;;28.18;45.48;99401.78;6236107;22;20015;-90
2023/08/17 08:56:57;;;;;;;6.55;4.20;;;;;;;28.32;45.78;99403.03;6213255;22;20011;-91
2023/08/17 08:59:23;;;;;;;8.93;4.45;;;;;;;28.40;44.35;99393.59;6237701;22;19999;-91
2023/08/17 09:01:51;;;;;;;7.13;4.22;;;;;;;28.57;44.85;99397.63;6210938;22;20791;-90
2023/08/17 09:04:17;;;;;;;8.80;3.92;;;;;;;28.69;44.13;99397.28;6213417;22;20030;-90
2023/08/17 09:06:45;;;;;;;6.90;3.65;;;;;;;28.80;44.43;99383.47;6204630;22;20012;-89
2023/08/17 09:09:10;;;;;;;6.65;3.90;;;;;;;29.02;43.93;99404.50;6276725;22;19997;-91
2023/08/17 09:11:39;;;;;;;10.68;4.05;;;;;;;29.14;43.07;99406.16;6247049;22;20012;-90
2023/08/17 09:14:14;;;;;;;10.50;4.20;;;;;;;29.15;43.34;99390.31;6266483;22;20021;-90
2023/08/17 09:17:26;;;;;;;7.13;3.38;;;;;;;28.93;43.08;99367.25;6243128;22;20001;-95
2023/08/17 09:23:21;;;;;;;7.05;3.67;;;;;;;29.13;43.10;99371.28;6257098;22;20005;-91
2023/08/17 09:26:00;;;;;;;5.00;3.05;;;;;;;29.15;42.28;99384.75;6257148;22;20025;-93
2023/08/17 09:28:25;;;;;;;5.25;3.83;;;;;;;29.25;43.12;99377.66;6119901;23;20009;-94
2023/08/17 09:31:09;;;;;;;6.88;3.70;;;;;;;29.43;42.41;99397.88;6246239;22;20020;-94
2023/08/17 09:33:35;;;;;;;4.07;2.90;;;;;;;29.07;42.24;99372.81;6168279;23;20491;-92
2023/08/17 09:36:03;;;;;;;6.30;3.28;;;;;;;29.27;42.36;99392.69;6118849;23;20067;-94
2023/08/17 09:38:29;;;;;;;7.45;3.70;;;;;;;29.32;42.26;99383.97;6117710;23;20001;-92
2023/08/17 09:41:08;;;;;;;5.32;3.38;;;;;;;29.49;42.02;99384.38;6119655;22;19993;-92
2023/08/17 09:43:45;;;;;;;9.45;3.63;;;;;;;29.50;42.15;99369.34;6121483;23;20315;-94
2023/08/17 09:47:06;;;;;;;5.90;3.53;;;;;;;29.33;42.28;99360.63;6150203;23;20009;-94
2023/08/17 09:49:32;;;;;;;4.85;3.35;;;;;;;29.70;41.98;99383.59;6134393;23;20019;-95
2023/08/17 09:52:08;;;;;;;8.82;3.55;;;;;;;29.77;41.58;99383.63;6116510;23;20015;-95
2023/08/17 09:55:07;;;;;;;;;;;;;;;;;;;;;
2023/08/17 09:57:44;;;;;;;;;;;;;;;29.80;41.32;99389.16;6165715;23;20037;-92
2023/08/17 10:00:13;;;;;;;4.63;3.20;;;;;;;29.87;41.34;99365.38;6141622;23;19904;-90
2023/08/17 10:02:43;;;;;;;8.55;3.58;;;;;;;30.26;40.42;99386.66;6114725;22;20001;-89
2023/08/17 10:08:15;;;;;;;9.52;4.40;;;;;;;30.55;39.48;99371.53;6108874;23;20014;-91
2023/08/17 10:10:42;;;;;;;7.07;3.47;;;;;;;30.67;39.19;99366.69;6244783;22;20013;-90
2023/08/17 10:13:19;;;;;;;5.90;3.70;;;;;;;30.83;39.09;99373.34;6143690;22;20020;-89
2023/08/17 10:16:11;;;;;;;5.03;3.10;;;;;;;30.96;39.54;99378.47;6140255;23;20005;-90
2023/08/17 10:18:56;;;;;;;4.75;3.17;;;;;;;31.00;38.60;99374.50;6196996;23;20428;-88
2023/08/17 10:21:33;;;;;;;6.45;3.33;;;;;;;31.14;37.65;99373.59;6116123;23;20005;-87
2023/08/17 10:24:00;;;;;;;6.95;3.15;;;;;;;31.08;37.48;99352.97;6111658;23;20062;-86
2023/08/17 10:26:30;;;;;;;6.88;3.28;;;;;;;31.18;37.66;99356.88;6107027;22;20049;-87
2023/08/17 10:28:58;;;;;;;9.07;3.43;;;;;;;31.25;37.56;99354.03;6232338;23;20044;-87
2023/08/17 10:31:40;;;;;;;5.38;3.00;;;;;;;31.36;38.12;99348.41;6214622;23;20009;-91
2023/08/17 10:34:06;;;;;;;7.82;3.85;;;;;;;31.55;37.78;99353.41;6214082;23;20036;-93
2023/08/17 10:36:38;;;;;;;8.35;3.78;;;;;;;31.54;37.34;99339.91;6236447;23;20002;-94
2023/08/17 10:39:26;;;;;;;6.97;3.38;;;;;;;31.58;36.78;99338.66;6241441;23;20337;-94
2023/08/17 10:41:51;;;;;;;5.40;3.80;;;;;;;31.56;36.62;99334.72;6210255;23;20112;-92
2023/08/17 10:44:46;;;;;;;7.53;3.70;;;;;;;31.78;36.79;99336.09;6241084;23;20001;-94
2023/08/17 10:47:23;;;;;;;6.95;4.00;;;;;;;31.85;36.90;99331.66;6266680;22;20031;-93
2023/08/17 10:49:56;;;;;;;8.38;3.45;;;;;;;31.85;36.81;99321.28;6236988;23;19997;-92
2023/08/17 10:52:47;;;;;;;3.72;2.83;;;;;;;31.92;37.16;99315.66;6233542;23;20005;-96
2023/08/17 10:55:32;;;;;;;4.95;2.72;;;;;;;31.79;35.86;99307.06;6114263;23;19993;-93
2023/08/17 10:58:32;;;;;;;4.43;2.97;;;;;;;31.90;35.53;99306.94;6220660;23;19998;-93
2023/08/17 11:00:57;;;;;;;5.03;3.00;;;;;;;32.01;35.96;99312.41;6166154;23;20009;-94
2023/08/17 11:03:23;;;;;;;5.47;2.88;;;;;;;32.08;35.61;99317.09;6210499;23;19998;-93
2023/08/17 11:05:58;;;;;;;7.97;3.63;;;;;;;32.14;36.03;99312.63;6211993;23;20008;-92
2023/08/17 11:08:44;;;;;;;5.30;3.05;;;;;;;32.20;35.95;99308.97;6231765;23;20002;-93
2023/08/17 11:11:11;;;;;;;4.90;3.00;;;;;;;32.15;35.55;99301.09;6234918;23;20006;-96
2023/08/17 11:14:13;;;;;;;6.32;2.78;;;;;;;32.09;35.24;99301.97;6219206;23;20070;-94
2023/08/17 11:16:49;;;;;;;8.48;3.10;;;;;;;32.17;35.62;99290.31;6237867;23;20035;-93
2023/08/17 11:19:21;;;;;;;6.63;3.13;;;;;;;32.14;35.64;99265.28;6209492;23;20032;-95
2023/08/17 11:21:57;;;;;;;5.47;3.00;;;;;;;32.48;35.53;99295.06;6212471;23;20049;-93
2023/08/17 11:24:29;;;;;;;7.05;3.20;;;;;;;32.53;35.17;99287.03;6216414;23;20009;-92
2023/08/17 11:27:11;;;;;;;4.78;2.95;;;;;;;32.45;34.50;99273.63;6220405;23;20100;-95
2023/08/17 11:29:39;;;;;;;4.45;3.10;;;;;;;32.63;33.87;99271.41;6102945;23;20457;-94
2023/08/17 11:32:08;;;;;;;5.18;2.83;;;;;;;32.65;33.80;99284.94;6075731;23;20010;-92
2023/08/17 11:34:38;;;;;;;5.15;2.97;;;;;;;32.76;33.81;99261.22;6099430;23;20006;-94
2023/08/17 11:37:32;;;;;;;6.40;2.88;;;;;;;32.73;34.08;99252.94;6099677;23;20009;-93
2023/08/17 11:39:58;;;;;;;5.25;3.00;;;;;;;32.93;34.59;99276.09;6098976;23;20442;-91
2023/08/17 11:42:23;;;;;;;4.57;2.90;;;;;;;33.01;33.99;99262.84;6075929;23;19994;-92
2023/08/17 11:44:52;;;;;;;4.40;2.75;;;;;;;33.09;33.63;99261.53;6072309;23;20010;-89
2023/08/17 11:47:17;;;;;;;6.63;4.00;;;;;;;33.24;33.70;99269.66;6072146;23;20424;-88
2023/08/17 11:50:15;;;;;;;6.65;3.08;;;;;;;33.35;33.93;99268.28;6094808;23;20006;-87
2023/08/17 11:55:39;;;;;;;4.85;2.72;;;;;;;33.55;33.20;99264.72;6079428;23;20011;-93